Time;durP1;ratioP1;P1;durP2;ratioP2;P2;SDS_P1;SDS_P2;PMS_P1;PMS_P2;Temp;Humidity;BMP_temperature;BMP_pressure;BME280_temperature;BME280_humidity;BME280_pressure;Samples;Min_cycle;Max_cycle;Signal;HPM_P1;HPM_P2
2024/02/03 00:02:19;;;;;;;2.33;1.02;;;;;;;8.05;53.64;97828.84;5013196;28;20052;-79
2024/02/03 00:04:46;;;;;;;2.33;1.15;;;;;;;8.01;53.31;97831.84;5013104;28;20137;-79
2024/02/03 00:07:14;;;;;;;4.43;1.67;;;;;;;7.99;55.78;97825.97;5013267;28;20053;-80
2024/02/03 00:09:42;;;;;;;0.88;0.75;;;;;;;7.97;54.74;97825.28;5013398;28;20050;-79
2024/02/03 00:12:10;;;;;;;1.05;0.95;;;;;;;7.97;53.98;97830.47;5013040;28;20050;-79
2024/02/03 00:14:39;;;;;;;1.15;1.05;;;;;;;7.93;53.64;97829.09;5013315;28;20056;-79
2024/02/03 00:17:07;;;;;;;1.40;0.90;;;;;;;7.89;53.74;97825.94;5013090;28;20046;-79
2024/02/03 00:19:34;;;;;;;1.25;1.00;;;;;;;7.87;56.20;97824.44;5019932;28;20037;-79
2024/02/03 00:22:02;;;;;;;1.25;1.13;;;;;;;7.87;56.23;97840.03;5037051;28;20030;-78
2024/02/03 00:24:30;;;;;;;2.33;1.20;;;;;;;7.87;56.00;97827.88;5036286;28;20068;-79
2024/02/03 00:26:57;;;;;;;1.10;1.00;;;;;;;7.85;54.65;97827.19;5033007;28;20049;-79
2024/02/03 00:29:25;;;;;;;3.35;1.20;;;;;;;7.82;54.66;97825.66;5015299;28;20052;-79
2024/02/03 00:31:54;;;;;;;2.58;1.00;;;;;;;7.79;54.07;97832.91;5013842;28;20522;-79
2024/02/03 00:34:21;;;;;;;1.30;1.20;;;;;;;7.79;57.20;97836.34;5013986;28;20145;-79
2024/02/03 00:36:49;;;;;;;0.68;0.68;;;;;;;7.80;55.54;97830.16;5014211;28;20042;-79
2024/02/03 00:39:17;;;;;;;1.08;0.70;;;;;;;7.77;55.03;97843.44;5013283;28;20515;-79
2024/02/03 00:41:45;;;;;;;2.85;1.20;;;;;;;7.73;56.26;97831.66;5013014;28;20054;-79
2024/02/03 00:44:14;;;;;;;2.13;1.20;;;;;;;7.74;55.82;97822.09;5013043;28;20058;-79
2024/02/03 00:46:42;;;;;;;2.58;1.10;;;;;;;7.76;59.32;97818.44;5013308;28;20141;-79
2024/02/03 00:49:10;;;;;;;1.98;1.10;;;;;;;7.74;55.98;97820.34;5013219;28;20050;-79
2024/02/03 00:51:38;;;;;;;1.00;0.95;;;;;;;7.72;57.57;97816.19;5012722;28;20074;-79
2024/02/03 00:54:06;;;;;;;1.00;0.90;;;;;;;7.72;59.19;97817.03;5012431;28;20053;-79
2024/02/03 00:56:34;;;;;;;1.35;1.25;;;;;;;7.70;56.00;97818.94;5012648;28;20112;-79
2024/02/03 00:59:02;;;;;;;1.67;1.10;;;;;;;7.66;56.25;97820.16;5013026;28;20057;-79
2024/02/03 01:01:30;;;;;;;2.08;1.08;;;;;;;7.64;56.23;97825.50;5014275;28;20046;-77
2024/02/03 01:03:57;;;;;;;2.28;1.45;;;;;;;7.62;55.15;97821.38;5017193;28;20053;-79
2024/02/03 01:06:27;;;;;;;1.70;1.10;;;;;;;7.59;56.21;97821.66;5017033;28;20085;-79
2024/02/03 01:08:54;;;;;;;1.63;1.00;;;;;;;7.56;54.98;97827.09;5016594;28;20100;-79
2024/02/03 01:11:22;;;;;;;1.45;1.00;;;;;;;7.53;55.46;97827.38;5016803;28;20045;-79
2024/02/03 01:13:49;;;;;;;1.45;1.30;;;;;;;7.48;54.61;97825.19;5016829;28;20087;-79
2024/02/03 01:16:17;;;;;;;1.80;1.25;;;;;;;7.42;54.44;97821.31;5017292;28;20060;-79
2024/02/03 01:18:44;;;;;;;1.30;1.20;;;;;;;7.38;55.23;97840.72;5036066;28;20073;-79
2024/02/03 01:21:16;;;;;;;1.38;1.27;;;;;;;7.36;55.94;97834.00;5037493;28;20045;-80
2024/02/03 01:23:45;;;;;;;2.00;1.27;;;;;;;7.31;54.87;97818.03;5029801;28;20050;-79
2024/02/03 01:26:12;;;;;;;2.20;1.10;;;;;;;7.28;55.35;97824.31;5017181;28;20057;-79
2024/02/03 01:28:40;;;;;;;1.40;1.10;;;;;;;7.26;56.01;97815.81;5016892;28;20503;-79
2024/02/03 01:31:09;;;;;;;3.10;1.60;;;;;;;7.27;55.90;97811.44;5016443;28;20148;-79
2024/02/03 01:33:36;;;;;;;1.75;1.30;;;;;;;7.28;58.59;97813.91;5016274;28;20118;-79
2024/02/03 01:36:05;;;;;;;2.75;1.38;;;;;;;7.30;56.19;97821.56;5016538;28;20057;-79
2024/02/03 01:38:33;;;;;;;1.45;1.15;;;;;;;7.26;55.43;97815.81;5016197;28;20053;-79
2024/02/03 01:41:02;;;;;;;2.70;1.20;;;;;;;7.23;55.01;97805.69;5016295;28;20078;-79
2024/02/03 01:43:29;;;;;;;1.90;1.10;;;;;;;7.20;55.16;97805.97;5016212;28;20594;-79
2024/02/03 01:45:57;;;;;;;1.27;1.17;;;;;;;7.24;58.36;97807.34;5016544;28;20050;-79
2024/02/03 01:48:25;;;;;;;1.13;0.90;;;;;;;7.23;55.67;97801.31;5016183;28;20053;-79
2024/02/03 01:50:53;;;;;;;2.00;1.70;;;;;;;7.21;55.31;97802.41;5015792;28;20054;-79
2024/02/03 01:53:21;;;;;;;1.58;1.23;;;;;;;7.21;55.71;97798.06;5015916;28;20396;-79
2024/02/03 01:55:50;;;;;;;1.65;1.20;;;;;;;7.22;54.68;97798.88;5016155;28;20504;-79
2024/02/03 01:58:20;;;;;;;0.88;0.88;;;;;;;7.20;55.10;97805.97;5016158;28;20054;-79
2024/02/03 02:00:49;;;;;;;1.70;1.33;;;;;;;7.21;55.86;97797.22;5016080;28;20566;-79
2024/02/03 02:03:17;;;;;;;0.95;0.93;;;;;;;7.20;55.21;97795.56;5015616;28;20162;-79
2024/02/03 02:05:45;;;;;;;1.25;0.90;;;;;;;7.20;55.62;97792.97;5015630;28;20569;-79
2024/02/03 02:08:13;;;;;;;1.05;0.98;;;;;;;7.21;57.25;97789.41;5015958;28;20046;-79
2024/02/03 02:10:40;;;;;;;1.00;0.90;;;;;;;7.24;57.46;97796.97;5015857;28;20144;-79
2024/02/03 02:13:08;;;;;;;1.20;1.08;;;;;;;7.25;55.94;97788.22;5014344;28;20136;-79
2024/02/03 02:15:37;;;;;;;1.65;1.17;;;;;;;7.25;58.11;97798.59;5015491;28;20136;-79
2024/02/03 02:18:05;;;;;;;2.00;1.27;;;;;;;7.26;56.53;97800.25;5015367;28;20068;-79
2024/02/03 02:20:34;;;;;;;1.50;0.90;;;;;;;7.26;56.18;97795.06;5015630;28;20132;-79
2024/02/03 02:23:01;;;;;;;3.08;0.98;;;;;;;7.26;56.72;97797.66;5015674;28;20105;-79
2024/02/03 02:25:29;;;;;;;1.20;0.90;;;;;;;7.25;55.95;97808.97;5015119;28;20086;-79
2024/02/03 02:27:56;;;;;;;1.30;1.00;;;;;;;7.21;55.63;97805.00;5015095;28;20133;-79
2024/02/03 02:30:24;;;;;;;1.15;0.93;;;;;;;7.18;56.78;97797.47;5014861;28;20069;-79
2024/02/03 02:32:52;;;;;;;1.05;0.90;;;;;;;7.17;57.51;97801.00;5014833;28;20049;-79
2024/02/03 02:35:19;;;;;;;1.33;1.23;;;;;;;7.18;58.44;97807.84;5015060;28;20060;-79
2024/02/03 02:37:48;;;;;;;0.85;0.82;;;;;;;7.14;56.05;97811.66;5016992;28;20137;-78
2024/02/03 02:40:16;;;;;;;1.02;1.00;;;;;;;7.10;56.03;97805.91;5038465;28;20080;-78
2024/02/03 02:42:43;;;;;;;1.08;0.80;;;;;;;7.07;56.10;97806.19;5038413;28;20061;-80
2024/02/03 02:45:11;;;;;;;1.67;1.10;;;;;;;7.04;55.86;97800.41;5038174;28;20077;-79
2024/02/03 02:47:38;;;;;;;1.08;0.77;;;;;;;7.00;56.09;97805.88;5026832;28;20462;-78
2024/02/03 02:50:07;;;;;;;1.55;1.15;;;;;;;6.95;55.72;97805.44;5015114;28;20399;-79
2024/02/03 02:52:35;;;;;;;1.77;1.33;;;;;;;6.91;55.39;97801.47;5014665;28;20054;-79
2024/02/03 02:55:04;;;;;;;1.75;1.20;;;;;;;6.84;55.63;97795.13;5013970;28;20077;-79
2024/02/03 02:57:32;;;;;;;1.30;1.20;;;;;;;6.81;55.75;97798.00;5013680;28;20056;-79
2024/02/03 02:59:59;;;;;;;1.65;1.10;;;;;;;6.77;56.00;97800.00;5013534;28;20099;-79
2024/02/03 03:02:27;;;;;;;1.02;0.90;;;;;;;6.72;56.02;97796.16;5013287;28;20049;-79
2024/02/03 03:04:54;;;;;;;2.50;1.10;;;;;;;6.70;55.96;97798.06;5014461;28;20422;-79
2024/02/03 03:07:23;;;;;;;1.13;1.00;;;;;;;6.68;55.92;97795.59;5014671;28;20061;-79
2024/02/03 03:09:51;;;;;;;1.25;1.10;;;;;;;6.66;56.27;97791.50;5014717;28;20049;-79
2024/02/03 03:12:20;;;;;;;1.40;1.08;;;;;;;6.64;57.40;97793.38;5011528;28;20053;-79
2024/02/03 03:14:48;;;;;;;1.40;1.30;;;;;;;6.62;56.97;97785.72;5005804;28;20051;-79
2024/02/03 03:17:15;;;;;;;1.52;1.42;;;;;;;6.60;57.25;97792.81;5013225;28;20080;-79
2024/02/03 03:19:43;;;;;;;1.25;1.15;;;;;;;6.59;57.30;97802.38;5014406;28;20136;-79
2024/02/03 03:22:12;;;;;;;1.77;1.60;;;;;;;6.58;57.40;97790.38;5014067;28;20049;-79
2024/02/03 03:24:41;;;;;;;2.97;1.42;;;;;;;6.55;58.02;97794.97;5014335;28;20104;-79
2024/02/03 03:27:09;;;;;;;1.65;1.55;;;;;;;6.54;58.20;97798.53;5000692;28;20078;-78
2024/02/03 03:29:38;;;;;;;1.73;1.60;;;;;;;6.51;58.92;97797.00;5002691;28;20073;-79
2024/02/03 03:32:06;;;;;;;2.28;2.08;;;;;;;6.51;59.11;97799.56;4992757;28;20060;-79
2024/02/03 03:34:34;;;;;;;2.50;2.00;;;;;;;6.52;60.80;97798.66;4993968;28;20060;-79
2024/02/03 03:37:01;;;;;;;2.20;2.00;;;;;;;6.52;60.23;97803.84;4993721;28;20185;-79
2024/02/03 03:39:29;;;;;;;1.98;1.80;;;;;;;6.49;60.29;97806.66;4992943;28;20061;-79
2024/02/03 03:41:56;;;;;;;2.17;1.98;;;;;;;6.43;60.90;97807.19;4994255;28;20081;-79
2024/02/03 03:44:24;;;;;;;2.70;2.13;;;;;;;6.42;61.70;97802.13;4994056;28;20149;-79
2024/02/03 03:46:54;;;;;;;2.95;2.33;;;;;;;6.39;62.07;97808.38;4994300;28;20058;-79
2024/02/03 03:49:22;;;;;;;2.67;2.45;;;;;;;6.37;61.91;97805.09;4993975;28;20543;-79
2024/02/03 03:51:50;;;;;;;3.58;2.80;;;;;;;6.37;62.29;97807.69;4995004;28;20054;-79
2024/02/03 03:54:17;;;;;;;3.72;2.72;;;;;;;6.36;62.72;97806.03;4993716;28;20126;-79
2024/02/03 03:56:45;;;;;;;3.85;2.92;;;;;;;6.34;62.62;97802.72;4994441;28;20065;-79
2024/02/03 03:59:13;;;;;;;3.47;2.70;;;;;;;6.29;62.82;97807.47;4993810;28;20054;-79
2024/02/03 04:01:40;;;;;;;2.92;2.40;;;;;;;6.29;64.91;97803.09;4993803;28;20073;-79
2024/02/03 04:04:09;;;;;;;4.50;3.50;;;;;;;6.32;64.48;97809.81;4993300;28;20051;-79
2024/02/03 04:06:37;;;;;;;4.68;2.97;;;;;;;6.31;64.46;97801.22;4994038;28;20054;-79
2024/02/03 04:09:05;;;;;;;3.20;2.90;;;;;;;6.34;65.42;97813.09;4994087;28;20046;-79
2024/02/03 04:11:33;;;;;;;2.75;2.47;;;;;;;6.34;65.83;97820.88;4993697;28;20051;-79
2024/02/03 04:14:00;;;;;;;3.08;2.78;;;;;;;6.33;66.35;97825.25;4993480;28;20050;-79
2024/02/03 04:16:28;;;;;;;4.93;3.58;;;;;;;6.34;66.34;97820.88;4993801;28;20046;-79
2024/02/03 04:18:55;;;;;;;4.32;3.67;;;;;;;6.30;66.29;97817.72;4993607;28;20054;-78
2024/02/03 04:21:26;;;;;;;5.50;3.60;;;;;;;6.28;66.03;97829.16;4994130;28;20248;-79
2024/02/03 04:23:54;;;;;;;4.15;3.67;;;;;;;6.27;66.41;97835.28;4993525;28;20141;-79
2024/02/03 04:26:22;;;;;;;3.63;3.33;;;;;;;6.29;66.92;97825.63;4993718;28;20453;-78
2024/02/03 04:28:49;;;;;;;5.65;3.95;;;;;;;6.33;67.83;97822.66;4993650;28;20514;-79
2024/02/03 04:31:17;;;;;;;4.50;4.07;;;;;;;6.31;67.56;97819.34;4993221;28;20058;-79
2024/02/03 04:33:44;;;;;;;5.88;4.75;;;;;;;6.29;67.38;97825.63;4993169;28;20046;-79
2024/02/03 04:36:12;;;;;;;4.65;4.13;;;;;;;6.28;67.72;97821.41;4993003;28;20136;-79
2024/02/03 04:38:41;;;;;;;5.85;5.20;;;;;;;6.27;68.33;97817.97;4993537;28;20507;-79
2024/02/03 04:41:08;;;;;;;6.13;4.85;;;;;;;6.27;68.76;97830.09;4993035;28;20051;-79
2024/02/03 04:43:36;;;;;;;5.45;4.60;;;;;;;6.25;68.53;97819.03;4992766;28;20074;-79
2024/02/03 04:46:04;;;;;;;6.90;5.35;;;;;;;6.23;68.72;97831.28;4993187;28;20059;-79
2024/02/03 04:48:31;;;;;;;5.75;4.60;;;;;;;6.26;70.08;97826.69;4993500;28;20132;-79
2024/02/03 04:50:59;;;;;;;4.95;4.45;;;;;;;6.31;70.03;97823.72;4993337;28;20046;-79
2024/02/03 04:53:26;;;;;;;5.50;4.70;;;;;;;6.29;69.63;97823.03;4992815;28;20499;-79
2024/02/03 04:55:55;;;;;;;5.13;4.40;;;;;;;6.28;70.30;97821.41;4993209;28;20133;-79
2024/02/03 04:58:23;;;;;;;9.25;6.03;;;;;;;6.27;69.73;97820.56;4993365;28;20438;-79
2024/02/03 05:00:51;;;;;;;5.72;4.72;;;;;;;6.31;70.37;97828.91;4993410;28;20054;-79
2024/02/03 05:03:18;;;;;;;5.30;4.60;;;;;;;6.29;70.06;97829.03;4993052;28;20542;-78
2024/02/03 05:05:46;;;;;;;5.72;5.03;;;;;;;6.28;69.85;97834.34;5014929;28;20093;-78
2024/02/03 05:08:13;;;;;;;6.72;4.72;;;;;;;6.28;69.72;97823.97;5012131;28;20054;-80
2024/02/03 05:10:41;;;;;;;6.57;5.15;;;;;;;6.28;70.61;97821.41;4997369;28;20460;-79
2024/02/03 05:13:10;;;;;;;6.72;5.60;;;;;;;6.31;70.54;97831.50;5014958;28;20065;-79
2024/02/03 05:15:37;;;;;;;9.90;5.88;;;;;;;6.34;70.88;97832.09;5015453;28;20054;-79
2024/02/03 05:18:05;;;;;;;8.02;5.55;;;;;;;6.38;71.57;97833.47;5002891;28;20050;-79
2024/02/03 05:20:33;;;;;;;6.18;5.13;;;;;;;6.41;71.91;97829.81;4993350;28;20054;-79
2024/02/03 05:23:01;;;;;;;9.13;5.00;;;;;;;6.38;70.62;97830.03;4993000;28;20081;-79
2024/02/03 05:25:28;;;;;;;7.13;4.95;;;;;;;6.37;72.21;97833.59;4992876;28;20479;-79
2024/02/03 05:27:56;;;;;;;5.50;4.78;;;;;;;6.39;71.45;97832.53;4994153;28;20054;-79
2024/02/03 05:30:25;;;;;;;6.30;5.68;;;;;;;6.42;73.39;97826.25;4993738;28;20047;-78
2024/02/03 05:32:53;;;;;;;6.03;5.25;;;;;;;6.46;72.60;97829.44;5035757;23;20062;-80
2024/02/03 05:35:20;;;;;;;5.70;4.70;;;;;;;6.45;71.28;97826.03;5012222;28;20073;-80
2024/02/03 05:37:48;;;;;;;6.75;5.57;;;;;;;6.43;72.58;97820.16;5012691;28;20093;-79
2024/02/03 05:40:15;;;;;;;5.47;4.72;;;;;;;6.43;72.93;97830.50;5012488;28;20431;-80
2024/02/03 05:42:43;;;;;;;5.93;4.57;;;;;;;6.44;73.68;97829.56;5012071;28;20136;-80
2024/02/03 05:45:11;;;;;;;7.90;6.20;;;;;;;6.44;72.43;97826.97;5012103;28;20049;-80
2024/02/03 05:47:40;;;;;;;6.28;5.38;;;;;;;6.46;73.86;97822.47;5013971;28;20049;-80
2024/02/03 05:50:08;;;;;;;7.65;5.45;;;;;;;6.47;72.66;97826.72;5015875;28;20107;-79
2024/02/03 05:52:35;;;;;;;12.55;6.22;;;;;;;6.49;73.33;97827.41;5015831;28;20053;-79
2024/02/03 05:55:03;;;;;;;7.97;6.20;;;;;;;6.51;72.79;97829.88;5016002;28;20590;-79
2024/02/03 05:57:31;;;;;;;6.65;5.95;;;;;;;6.49;72.24;97837.75;5015866;28;20056;-79
2024/02/03 05:59:58;;;;;;;6.03;5.32;;;;;;;6.49;71.99;97835.16;5015681;28;20064;-80
2024/02/03 06:02:30;;;;;;;7.72;6.00;;;;;;;6.48;72.94;97830.94;5015757;28;20129;-80
2024/02/03 06:04:59;;;;;;;8.10;6.10;;;;;;;6.48;73.32;97830.94;5015684;28;20050;-79
2024/02/03 06:07:26;;;;;;;9.15;6.75;;;;;;;6.50;72.97;97833.44;5015713;28;20053;-79
2024/02/03 06:09:54;;;;;;;7.80;6.28;;;;;;;6.51;72.94;97828.09;5015593;28;20081;-79
2024/02/03 06:12:22;;;;;;;9.00;7.00;;;;;;;6.55;74.19;97826.91;5015332;28;20096;-79
2024/02/03 06:14:49;;;;;;;6.95;5.93;;;;;;;6.59;74.04;97833.47;5015439;28;20108;-79
2024/02/03 06:17:17;;;;;;;8.13;6.78;;;;;;;6.66;74.58;97827.78;5015349;28;20129;-80
2024/02/03 06:19:45;;;;;;;8.07;6.15;;;;;;;6.70;74.16;97834.38;5015146;28;20132;-79
2024/02/03 06:22:14;;;;;;;8.50;7.63;;;;;;;6.72;74.52;97835.06;5015204;28;20156;-77
2024/02/03 06:24:42;;;;;;;8.77;7.20;;;;;;;6.74;74.72;97830.59;5015291;28;20077;-80
2024/02/03 06:27:09;;;;;;;10.13;7.13;;;;;;;6.78;74.41;97834.56;5015345;28;20049;-79
2024/02/03 06:29:37;;;;;;;8.75;7.35;;;;;;;6.78;73.98;97829.38;5015382;28;20057;-80
2024/02/03 06:32:05;;;;;;;8.18;6.68;;;;;;;6.79;74.31;97818.03;5016222;28;20092;-80
2024/02/03 06:34:32;;;;;;;9.65;7.22;;;;;;;6.78;73.99;97826.78;5018023;28;20084;-80
2024/02/03 06:37:00;;;;;;;7.70;6.82;;;;;;;6.77;74.43;97832.91;5018877;28;20046;-80
2024/02/03 06:39:29;;;;;;;8.18;6.78;;;;;;;6.78;75.47;97832.78;5014815;28;20045;-79
2024/02/03 06:41:57;;;;;;;11.23;8.25;;;;;;;6.81;75.04;97831.72;5001228;28;20069;-80
2024/02/03 06:44:25;;;;;;;9.63;7.28;;;;;;;6.83;75.25;97842.78;4995876;28;20046;-79
2024/02/03 06:46:52;;;;;;;84.47;47.25;;;;;;;6.85;75.06;97842.66;4995953;28;20117;-80
2024/02/03 06:49:20;;;;;;;84.95;52.42;;;;;;;6.86;75.38;97857.25;4994982;28;20567;-82
2024/02/03 06:51:48;;;;;;;22.17;15.73;;;;;;;6.89;75.92;97862.22;4996509;28;20061;-82
2024/02/03 06:54:15;;;;;;;13.02;9.65;;;;;;;6.95;75.73;97864.25;5015146;28;20042;-80
2024/02/03 06:56:44;;;;;;;10.73;8.07;;;;;;;6.97;75.55;97868.38;5015659;28;20049;-79
2024/02/03 06:59:12;;;;;;;10.05;7.10;;;;;;;6.98;74.87;97872.63;5015159;28;20166;-79
2024/02/03 07:01:40;;;;;;;7.68;6.88;;;;;;;6.94;75.20;97873.81;5013590;28;20072;-79
2024/02/03 07:04:07;;;;;;;8.63;6.60;;;;;;;6.95;75.12;97869.44;5014490;28;20064;-78
2024/02/03 07:06:35;;;;;;;9.98;6.90;;;;;;;6.96;75.84;97866.75;5014600;28;20041;-78
2024/02/03 07:09:03;;;;;;;42.45;25.70;;;;;;;6.99;76.22;97863.88;4994768;28;20141;-79
2024/02/03 07:11:30;;;;;;;15.55;9.80;;;;;;;7.03;75.55;97861.88;4995191;28;20082;-79
2024/02/03 07:13:59;;;;;;;9.88;7.50;;;;;;;7.04;75.90;97865.28;4994735;28;20133;-79
2024/02/03 07:16:27;;;;;;;10.43;7.32;;;;;;;7.05;76.23;97869.53;4995099;28;20078;-78
2024/02/03 07:18:54;;;;;;;9.65;7.35;;;;;;;7.06;76.15;97863.38;4995113;28;20488;-79
2024/02/03 07:21:22;;;;;;;10.07;7.32;;;;;;;7.06;76.09;97855.59;5000716;28;20061;-78
2024/02/03 07:23:50;;;;;;;9.20;7.38;;;;;;;7.05;75.71;97865.16;4995982;28;20054;-78
2024/02/03 07:26:18;;;;;;;8.90;7.30;;;;;;;7.07;76.16;97860.66;5021338;28;20056;-78
2024/02/03 07:28:45;;;;;;;7.70;6.57;;;;;;;7.09;76.18;97855.34;5030060;28;20104;-79
2024/02/03 07:31:14;;;;;;;7.78;6.15;;;;;;;7.05;75.93;97859.97;5027605;28;20084;-79
2024/02/03 07:33:42;;;;;;;6.75;5.55;;;;;;;7.03;75.71;97858.47;5015466;28;20045;-78
2024/02/03 07:36:10;;;;;;;6.75;5.22;;;;;;;6.98;75.96;97859.66;5011773;28;20042;-78
2024/02/03 07:38:38;;;;;;;5.78;4.28;;;;;;;6.90;76.29;97849.09;4995571;28;20054;-78
2024/02/03 07:41:05;;;;;;;6.05;5.20;;;;;;;6.83;76.75;97855.75;4993878;28;20188;-78
2024/02/03 07:43:33;;;;;;;5.72;4.80;;;;;;;6.78;77.26;97855.31;5005251;28;20129;-78
2024/02/03 07:46:00;;;;;;;12.90;9.10;;;;;;;6.80;77.48;97856.00;5005962;28;20042;-79
2024/02/03 07:48:29;;;;;;;25.20;16.25;;;;;;;6.86;77.83;97860.66;4996054;28;20089;-78
2024/02/03 07:50:57;;;;;;;7.53;5.70;;;;;;;6.88;77.47;97853.59;4995201;28;20054;-79
2024/02/03 07:53:25;;;;;;;7.65;5.53;;;;;;;6.87;77.61;97851.94;5008207;28;20060;-79
2024/02/03 07:55:52;;;;;;;5.63;4.25;;;;;;;6.86;77.78;97844.28;5014270;28;20116;-79
2024/02/03 07:58:20;;;;;;;6.22;4.78;;;;;;;6.83;77.98;97853.16;5011231;28;20150;-79
2024/02/03 08:00:47;;;;;;;6.03;4.70;;;;;;;6.82;77.72;97851.50;5000044;28;20041;-78
2024/02/03 08:03:15;;;;;;;6.10;4.90;;;;;;;6.81;77.99;97848.09;5013428;28;20105;-78
2024/02/03 08:05:44;;;;;;;5.40;4.47;;;;;;;6.81;78.36;97853.28;5014679;28;20403;-79
2024/02/03 08:08:11;;;;;;;6.25;4.75;;;;;;;6.84;78.58;97846.19;5002551;28;20050;-78
2024/02/03 08:10:39;;;;;;;5.60;4.80;;;;;;;6.87;78.67;97846.75;4993785;28;20137;-78
2024/02/03 08:13:06;;;;;;;5.97;5.10;;;;;;;6.88;78.60;97850.16;4994005;28;20046;-78
2024/02/03 08:15:34;;;;;;;5.15;4.63;;;;;;;6.88;78.31;97848.41;4993817;28;20515;-78
2024/02/03 08:18:02;;;;;;;6.40;4.30;;;;;;;6.89;78.32;97852.66;4993770;28;20500;-79
2024/02/03 08:20:31;;;;;;;5.10;4.13;;;;;;;6.86;78.48;97854.66;4995471;28;20061;-78
2024/02/03 08:23:00;;;;;;;6.45;4.35;;;;;;;6.86;79.18;97859.84;4994766;28;20093;-78
2024/02/03 08:25:28;;;;;;;57.85;33.35;;;;;;;6.88;79.28;97852.78;4993933;28;20046;-78
2024/02/03 08:27:56;;;;;;;44.75;27.58;;;;;;;6.90;79.05;97854.28;4994267;28;20113;-78
2024/02/03 08:30:23;;;;;;;9.90;6.50;;;;;;;6.94;79.00;97858.25;4995716;28;20129;-78
2024/02/03 08:32:51;;;;;;;5.28;4.15;;;;;;;6.94;79.02;97858.25;5012667;28;20054;-78
2024/02/03 08:35:19;;;;;;;5.18;4.22;;;;;;;6.96;78.94;97863.34;5013151;28;20054;-78
2024/02/03 08:37:47;;;;;;;5.85;4.45;;;;;;;6.99;79.29;97869.06;4993450;28;20081;-77
2024/02/03 08:40:18;;;;;;;7.82;4.72;;;;;;;6.99;79.04;97861.28;4994564;28;20046;-78
2024/02/03 08:42:46;;;;;;;4.60;3.92;;;;;;;6.98;79.08;97861.44;4993033;28;20129;-79
2024/02/03 08:45:13;;;;;;;5.18;4.13;;;;;;;6.99;78.91;97857.88;4992444;28;20050;-78
2024/02/03 08:47:41;;;;;;;4.90;3.72;;;;;;;7.01;79.06;97858.56;4993041;28;20042;-79
2024/02/03 08:50:10;;;;;;;3.75;3.33;;;;;;;7.00;78.96;97855.16;4993049;28;20092;-78
2024/02/03 08:52:37;;;;;;;3.53;2.90;;;;;;;7.03;78.65;97859.28;4993425;28;20134;-78
2024/02/03 08:55:06;;;;;;;4.32;3.38;;;;;;;6.99;78.39;97856.09;4993159;28;20809;-78
2024/02/03 08:57:35;;;;;;;3.47;2.92;;;;;;;6.99;78.46;97860.47;4993828;28;20110;-79
2024/02/03 09:00:04;;;;;;;3.22;2.83;;;;;;;7.00;78.71;97868.13;4994165;28;20579;-79
2024/02/03 09:02:32;;;;;;;2.88;2.67;;;;;;;7.00;78.39;97862.94;4993308;28;20050;-78
2024/02/03 09:05:00;;;;;;;3.65;2.83;;;;;;;7.01;78.52;97867.16;4994198;28;20050;-80
2024/02/03 09:07:28;;;;;;;2.58;2.15;;;;;;;7.03;78.29;97872.25;4993817;28;20069;-79
2024/02/03 09:09:55;;;;;;;2.22;1.83;;;;;;;7.06;78.69;97865.97;4993155;28;20089;-78
2024/02/03 09:12:26;;;;;;;3.03;2.00;;;;;;;7.08;77.99;97874.44;4992757;28;20508;-78
2024/02/03 09:14:55;;;;;;;2.08;1.88;;;;;;;7.10;78.22;97873.38;4992955;28;20082;-78
2024/02/03 09:17:22;;;;;;;2.75;1.85;;;;;;;7.11;77.94;97874.22;4992779;28;20066;-78
2024/02/03 09:19:50;;;;;;;2.03;1.52;;;;;;;7.12;77.97;97875.84;4992946;28;20137;-79
2024/02/03 09:22:18;;;;;;;2.65;2.08;;;;;;;7.13;77.87;97867.13;4994115;28;20054;-78
2024/02/03 09:24:45;;;;;;;1.73;1.52;;;;;;;7.12;77.68;97868.88;4996634;28;20522;-78
2024/02/03 09:27:13;;;;;;;1.63;1.48;;;;;;;7.11;77.59;97862.06;4997219;28;20051;-79
2024/02/03 09:29:41;;;;;;;1.42;1.33;;;;;;;7.11;77.45;97875.03;4998982;28;20050;-78
2024/02/03 09:32:10;;;;;;;1.60;1.45;;;;;;;7.12;77.37;97873.25;5012789;28;20050;-78
2024/02/03 09:34:38;;;;;;;1.27;1.17;;;;;;;7.13;77.79;97880.09;4997394;28;20500;-79
2024/02/03 09:37:05;;;;;;;1.90;1.35;;;;;;;7.16;77.43;97877.22;4996544;28;20050;-81
2024/02/03 09:39:37;;;;;;;1.60;1.35;;;;;;;7.17;77.10;97868.47;4996314;28;20069;-81
2024/02/03 09:42:05;;;;;;;1.67;1.42;;;;;;;7.17;76.91;97878.84;4996017;28;20158;-81
2024/02/03 09:44:33;;;;;;;1.83;1.30;;;;;;;7.17;76.58;97873.66;4996005;28;20423;-81
2024/02/03 09:47:01;;;;;;;1.60;1.50;;;;;;;7.15;76.54;97876.41;4996198;28;20046;-81
2024/02/03 09:49:30;;;;;;;1.77;1.40;;;;;;;7.17;76.61;97874.53;4996057;28;20141;-80
2024/02/03 09:51:58;;;;;;;2.25;1.20;;;;;;;7.20;76.42;97876.84;4996418;28;20054;-78
2024/02/03 09:54:27;;;;;;;1.63;1.10;;;;;;;7.22;76.27;97892.28;4995767;28;20054;-78
2024/02/03 09:56:54;;;;;;;2.88;1.13;;;;;;;7.23;76.30;97886.94;4995997;28;20518;-79
2024/02/03 09:59:22;;;;;;;1.33;1.10;;;;;;;7.29;76.16;97897.78;4996284;28;20090;-80
2024/02/03 10:01:49;;;;;;;2.63;1.50;;;;;;;7.30;75.56;97884.66;4996174;28;20058;-78
2024/02/03 10:04:17;;;;;;;1.80;1.23;;;;;;;7.30;75.50;97881.25;4996003;28;20490;-78
2024/02/03 10:06:48;;;;;;;1.45;1.20;;;;;;;7.31;75.07;97881.13;4996414;28;20500;-78
2024/02/03 10:09:25;;;;;;;1.38;1.25;;;;;;;7.36;75.53;97889.34;4995998;28;20050;-79
2024/02/03 10:11:52;;;;;;;2.20;0.90;;;;;;;7.42;74.91;97886.22;4996015;28;20054;-81
2024/02/03 10:14:20;;;;;;;1.10;1.00;;;;;;;7.48;74.59;97889.25;4995692;28;20092;-81
2024/02/03 10:16:49;;;;;;;1.00;0.93;;;;;;;7.49;74.65;97894.31;4995247;28;20137;-81
2024/02/03 10:19:17;;;;;;;1.95;1.10;;;;;;;7.52;75.02;97890.63;5005185;28;20092;-77
2024/02/03 10:21:46;;;;;;;1.23;0.90;;;;;;;7.55;74.70;97893.00;5002199;28;20054;-77
2024/02/03 10:24:22;;;;;;;0.95;0.85;;;;;;;7.59;74.80;97889.19;4996451;28;20061;-77
2024/02/03 10:26:59;;;;;;;0.93;0.85;;;;;;;7.62;74.48;97888.91;4995770;28;20061;-77
2024/02/03 10:29:26;;;;;;;3.47;1.27;;;;;;;7.64;74.28;97871.41;5004322;28;20208;-77
2024/02/03 10:31:54;;;;;;;1.67;1.15;;;;;;;7.64;74.60;97876.63;4994430;28;20116;-76
2024/02/03 10:34:22;;;;;;;1.70;0.82;;;;;;;7.61;74.65;97872.50;4991260;28;20109;-76
2024/02/03 10:36:50;;;;;;;1.33;1.17;;;;;;;7.57;74.46;97865.13;4992976;28;20090;-76
2024/02/03 10:39:17;;;;;;;1.60;1.27;;;;;;;7.55;75.30;97862.66;5000143;28;20110;-81
2024/02/03 10:41:51;;;;;;;2.03;1.70;;;;;;;7.55;75.96;97865.25;5006042;28;20062;-78
2024/02/03 10:44:23;;;;;;;0.98;0.98;;;;;;;7.55;74.99;97867.03;5013844;28;20105;-77
2024/02/03 10:46:52;;;;;;;2.20;1.40;;;;;;;7.47;75.57;97859.06;5017520;28;20130;-80
2024/02/03 10:49:31;;;;;;;2.05;1.50;;;;;;;7.40;76.26;97856.97;4995927;28;20124;-80
2024/02/03 10:52:02;;;;;;;1.25;1.15;;;;;;;7.40;76.30;97849.19;5006217;28;20049;-77
2024/02/03 10:54:32;;;;;;;1.15;1.05;;;;;;;7.43;76.13;97842.91;5011376;28;20057;-76
2024/02/03 10:57:03;;;;;;;1.17;1.08;;;;;;;7.42;76.39;97846.47;4998253;28;20050;-75
2024/02/03 10:59:32;;;;;;;1.88;1.52;;;;;;;7.46;76.57;97844.44;5008969;28;20050;-75
2024/02/03 11:01:59;;;;;;;1.58;1.48;;;;;;;7.48;76.72;97855.50;5003414;28;20133;-76
2024/02/03 11:04:38;;;;;;;2.33;1.65;;;;;;;7.49;76.45;97857.16;5013521;28;20089;-78
2024/02/03 11:07:06;;;;;;;1.30;1.20;;;;;;;7.50;76.53;97856.19;4999314;28;20471;-77
2024/02/03 11:09:34;;;;;;;1.83;1.70;;;;;;;7.51;76.32;97860.44;4995276;28;20487;-76
2024/02/03 11:12:12;;;;;;;1.98;1.58;;;;;;;7.54;75.86;97849.78;4997807;28;20467;-78
2024/02/03 11:14:44;;;;;;;1.38;1.23;;;;;;;7.55;75.91;97843.66;4997470;28;20109;-80
2024/02/03 11:17:13;;;;;;;2.22;1.70;;;;;;;7.54;75.38;97834.22;5000435;28;20042;-79
2024/02/03 11:19:44;;;;;;;2.50;1.95;;;;;;;7.52;75.55;97834.34;4995463;28;20141;-76
2024/02/03 11:22:16;;;;;;;2.65;1.90;;;;;;;7.49;75.33;97837.19;4995658;28;20050;-76
2024/02/03 11:24:44;;;;;;;2.08;1.70;;;;;;;7.47;75.63;97835.69;4994879;28;20129;-77
2024/02/03 11:27:13;;;;;;;1.90;1.60;;;;;;;7.45;75.83;97847.97;4995405;28;20074;-77
2024/02/03 11:29:41;;;;;;;2.13;1.88;;;;;;;7.46;76.37;97839.25;4994540;28;20062;-77
2024/02/03 11:32:10;;;;;;;2.72;1.65;;;;;;;7.49;76.31;97841.59;4960221;28;1017092;-76
2024/02/03 11:34:38;;;;;;;1.88;1.50;;;;;;;7.54;75.64;97839.41;4995066;28;20064;-76
2024/02/03 11:37:08;;;;;;;1.35;1.25;;;;;;;7.56;75.04;97838.31;5000631;28;20046;-78
2024/02/03 11:39:37;;;;;;;2.33;1.40;;;;;;;7.56;75.17;97834.91;5003517;28;20030;-76
2024/02/03 11:42:07;;;;;;;3.00;1.20;;;;;;;7.60;74.88;97841.47;5001010;28;20050;-76
2024/02/03 11:44:42;;;;;;;2.03;1.33;;;;;;;7.62;74.28;97848.16;4994288;28;20054;-79
2024/02/03 11:47:10;;;;;;;1.00;1.00;;;;;;;7.63;74.42;97833.41;4997895;28;20141;-76